Time;durP1;ratioP1;P1;durP2;ratioP2;P2;SDS_P1;SDS_P2;PMS_P1;PMS_P2;Temp;Humidity;BMP_temperature;BMP_pressure;BME280_temperature;BME280_humidity;BME280_pressure;Samples;Min_cycle;Max_cycle;Signal;HPM_P1;HPM_P2
2020/12/01 00:01:49;;;;;;;44.43;26.70;;;;;;;-1.15;78.47;98236.30;1849721;77;21358;-80
2020/12/01 00:04:18;;;;;;;;;;;;;;;-1.16;78.28;98234.59;1852506;77;20904;-80
2020/12/01 00:06:45;;;;;;;44.53;24.25;;;;;;;-1.17;78.44;98235.47;1849742;77;20380;-80
2020/12/01 00:09:13;;;;;;;44.73;25.03;;;;;;;-1.20;78.35;98237.66;1849714;77;21365;-80
2020/12/01 00:11:41;;;;;;;48.02;27.07;;;;;;;-1.22;78.49;98241.13;1849629;77;20995;-80
2020/12/01 00:14:08;;;;;;;41.90;24.65;;;;;;;-1.22;78.54;98230.48;1849770;77;20915;-79
2020/12/01 00:16:35;;;;;;;40.43;23.12;;;;;;;-1.21;78.70;98233.87;1849575;77;20873;-80
2020/12/01 00:19:03;;;;;;;35.57;21.23;;;;;;;-1.21;78.62;98235.14;1849719;77;20935;-79
2020/12/01 00:21:30;;;;;;;34.87;20.00;;;;;;;-1.23;78.59;98230.08;1849645;77;22094;-80
2020/12/01 00:23:57;;;;;;;36.27;20.43;;;;;;;-1.25;78.52;98232.23;1849674;77;20928;-80
2020/12/01 00:26:24;;;;;;;36.88;21.33;;;;;;;-1.27;78.65;98233.99;1849715;77;20880;-80
2020/12/01 00:28:52;;;;;;;36.17;19.25;;;;;;;-1.28;78.73;98230.60;1849572;77;20987;-80
2020/12/01 00:31:19;;;;;;;36.95;21.10;;;;;;;-1.27;78.70;98234.83;1849630;77;21306;-80
2020/12/01 00:33:46;;;;;;;39.00;21.30;;;;;;;-1.25;78.67;98229.69;1849721;77;22131;-80
2020/12/01 00:36:14;;;;;;;34.73;20.83;;;;;;;-1.24;78.64;98228.81;1849574;77;20971;-80
2020/12/01 00:38:41;;;;;;;34.53;20.08;;;;;;;-1.24;78.58;98228.81;1849555;77;20955;-80
2020/12/01 00:41:12;;;;;;;35.53;20.07;;;;;;;-1.25;78.43;98229.69;1849592;77;21078;-80
2020/12/01 00:43:39;;;;;;;33.40;18.53;;;;;;;-1.30;78.48;98228.53;1849668;77;21321;-80
2020/12/01 00:46:06;;;;;;;31.60;18.25;;;;;;;-1.29;78.64;98225.09;1849633;77;21178;-80
2020/12/01 00:48:33;;;;;;;29.70;18.40;;;;;;;-1.28;78.58;98228.48;1849530;77;21124;-80
2020/12/01 00:51:01;;;;;;;30.92;18.57;;;;;;;-1.31;78.55;98230.69;1849520;77;20959;-80
2020/12/01 00:53:29;;;;;;;31.90;19.10;;;;;;;-1.31;78.72;98233.67;1849691;77;20919;-80
2020/12/01 00:55:56;;;;;;;39.30;22.30;;;;;;;-1.32;78.69;98233.27;1848725;77;20992;-80
2020/12/01 00:58:23;;;;;;;34.90;20.03;;;;;;;-1.34;78.54;98231.16;1847634;77;21201;-80
2020/12/01 01:01:05;;;;;;;31.10;18.00;;;;;;;-1.39;78.85;98229.17;1846321;77;20960;-79
2020/12/01 01:03:33;;;;;;;31.33;17.92;;;;;;;-1.41;78.81;98226.63;1847409;77;20983;-79
2020/12/01 01:06:00;;;;;;;32.20;18.80;;;;;;;-1.46;78.74;98226.73;1847555;77;20919;-80
2020/12/01 01:08:27;;;;;;;33.73;20.43;;;;;;;-1.51;78.78;98218.77;1847577;77;20915;-79
2020/12/01 01:10:55;;;;;;;33.95;19.15;;;;;;;-1.59;78.95;98216.38;1847651;77;20978;-79
2020/12/01 01:13:22;;;;;;;32.17;17.77;;;;;;;-1.70;79.02;98207.67;1847407;77;20999;-79
2020/12/01 01:15:49;;;;;;;33.17;19.23;;;;;;;-1.78;79.36;98212.52;1847459;77;21303;-79
2020/12/01 01:18:17;;;;;;;32.80;18.48;;;;;;;-1.84;79.48;98208.81;1847436;77;21406;-79
2020/12/01 01:20:44;;;;;;;33.77;18.90;;;;;;;-1.89;79.64;98205.53;1847492;77;20951;-79
2020/12/01 01:23:12;;;;;;;31.90;18.10;;;;;;;-1.96;79.62;98206.52;1847481;77;21641;-79
2020/12/01 01:25:39;;;;;;;32.80;19.17;;;;;;;-2.02;79.89;98213.40;1847419;77;20919;-79
2020/12/01 01:28:06;;;;;;;29.47;17.57;;;;;;;-2.05;80.11;98209.64;1847552;77;20904;-79
2020/12/01 01:30:34;;;;;;;30.23;17.73;;;;;;;-2.08;80.19;98203.75;1847553;77;20971;-79
2020/12/01 01:33:02;;;;;;;31.70;18.20;;;;;;;-2.11;80.31;98205.09;1847509;77;21038;-79
2020/12/01 01:35:29;;;;;;;32.93;19.33;;;;;;;-2.14;80.44;98203.45;1847522;77;21361;-79
2020/12/01 01:37:56;;;;;;;36.93;21.87;;;;;;;-2.15;80.37;98209.42;1847387;77;20919;-79
2020/12/01 01:40:26;;;;;;;35.07;19.27;;;;;;;-2.17;80.41;98205.20;1847539;77;20964;-80
2020/12/01 01:42:54;;;;;;;34.73;18.90;;;;;;;-2.17;80.52;98202.21;1847551;77;20988;-78
2020/12/01 01:45:42;;;;;;;31.63;17.27;;;;;;;-2.20;80.49;98202.28;1847528;77;20983;-78
2020/12/01 01:48:21;;;;;;;33.78;18.02;;;;;;;-2.26;80.69;98194.74;1847572;77;22424;-79
2020/12/01 01:51:04;;;;;;;33.20;19.63;;;;;;;-2.29;80.98;98190.55;1847524;77;20888;-80
2020/12/01 01:53:36;;;;;;;35.53;19.93;;;;;;;-2.31;81.07;98192.73;1844514;77;20999;-79
2020/12/01 01:56:06;;;;;;;34.60;18.57;;;;;;;-2.36;81.03;98190.69;1848092;77;20868;-78
2020/12/01 01:58:37;;;;;;;30.87;18.40;;;;;;;-2.38;81.16;98190.72;1849572;77;21010;-78
2020/12/01 02:01:11;;;;;;;34.27;19.00;;;;;;;-2.41;81.12;98189.91;1849584;77;21406;-79
2020/12/01 02:03:48;;;;;;;30.60;17.30;;;;;;;-2.43;81.21;98187.84;1849585;77;21058;-79
2020/12/01 02:06:42;;;;;;;33.63;18.70;;;;;;;-2.44;81.24;98187.00;1849560;77;21307;-79
2020/12/01 02:09:24;;;;;;;36.13;21.33;;;;;;;-2.40;81.41;98185.22;1849564;77;20932;-79
2020/12/01 02:11:51;;;;;;;39.53;20.37;;;;;;;-2.33;81.34;98185.52;1817003;77;21093;-78
2020/12/01 02:14:29;;;;;;;36.73;18.80;;;;;;;-2.27;81.27;98186.70;1849489;77;21793;-78
2020/12/01 02:17:14;;;;;;;32.93;19.57;;;;;;;-2.26;81.09;98185.39;1849473;77;20924;-78
2020/12/01 02:19:42;;;;;;;33.13;18.53;;;;;;;-2.32;81.04;98184.25;1849526;77;20998;-79
2020/12/01 02:22:13;;;;;;;34.87;18.63;;;;;;;-2.35;81.04;98184.28;1849439;77;20907;-79
2020/12/01 02:24:41;;;;;;;33.40;20.20;;;;;;;-2.36;81.16;98180.06;1849564;77;21002;-79
2020/12/01 02:27:09;;;;;;;35.13;19.33;;;;;;;-2.40;81.09;98178.86;1849588;77;21627;-79
2020/12/01 02:29:37;;;;;;;43.77;22.13;;;;;;;-2.49;81.33;98180.30;1849543;77;21070;-79
2020/12/01 02:32:04;;;;;;;38.97;21.30;;;;;;;-2.56;81.69;98177.88;1849532;77;21084;-79
2020/12/01 02:34:38;;;;;;;40.33;23.40;;;;;;;-2.57;81.97;98186.36;1849444;77;20916;-79
2020/12/01 02:37:08;;;;;;;37.97;21.90;;;;;;;-2.62;82.00;98194.53;1849415;77;20896;-79
2020/12/01 02:39:35;;;;;;;37.17;20.83;;;;;;;-2.61;82.29;98187.30;1849504;77;22072;-79
2020/12/01 02:42:10;;;;;;;38.87;19.90;;;;;;;-2.50;82.41;98188.81;1849552;77;21066;-79
2020/12/01 02:44:38;;;;;;;42.08;23.45;;;;;;;-2.40;82.31;98191.59;1849658;77;20896;-79
2020/12/01 02:47:05;;;;;;;44.07;21.27;;;;;;;-2.34;82.06;98193.61;1849397;77;21039;-79
2020/12/01 02:49:33;;;;;;;40.63;22.60;;;;;;;-2.30;81.96;98199.06;1849454;77;20927;-79
2020/12/01 02:52:01;;;;;;;44.67;24.23;;;;;;;-2.29;81.75;98198.20;1849431;77;21245;-79
2020/12/01 02:54:28;;;;;;;39.47;22.53;;;;;;;-2.27;81.77;98197.73;1849398;77;21342;-79
2020/12/01 02:56:57;;;;;;;41.97;22.60;;;;;;;-2.28;81.64;98197.32;1849421;77;21287;-79
2020/12/01 02:59:24;;;;;;;41.37;24.53;;;;;;;-2.28;81.46;98196.05;1849464;77;21076;-79
2020/12/01 03:01:51;;;;;;;39.43;22.47;;;;;;;-2.30;81.50;98194.41;1846646;76;20975;-79
2020/12/01 03:04:18;;;;;;;44.37;23.43;;;;;;;-2.27;81.61;98201.55;1849452;77;21233;-79
2020/12/01 03:06:45;;;;;;;38.97;20.97;;;;;;;-2.29;81.59;98200.74;1849471;77;21058;-79
2020/12/01 03:09:14;;;;;;;41.23;23.40;;;;;;;-2.29;81.63;98195.65;1849461;77;20959;-79
2020/12/01 03:11:42;;;;;;;40.53;22.83;;;;;;;-2.33;81.71;98194.44;1849355;77;20979;-79
2020/12/01 03:14:09;;;;;;;43.33;23.57;;;;;;;-2.34;81.85;98197.42;1849495;77;20923;-79
2020/12/01 03:16:37;;;;;;;40.93;21.43;;;;;;;-2.35;81.99;98197.02;1849527;77;21302;-79
2020/12/01 03:19:04;;;;;;;40.07;22.10;;;;;;;-2.35;82.04;98194.48;1849465;77;20940;-79
2020/12/01 03:21:31;;;;;;;35.97;19.57;;;;;;;-2.38;82.02;98197.52;1849482;77;20991;-79
2020/12/01 03:23:58;;;;;;;37.83;21.70;;;;;;;-2.40;82.05;98194.14;1849529;77;20884;-79
2020/12/01 03:26:25;;;;;;;37.73;20.07;;;;;;;-2.45;82.01;98190.86;1849566;77;20904;-78
2020/12/01 03:28:52;;;;;;;37.77;20.90;;;;;;;-2.46;82.14;98198.09;1849528;77;21601;-78
2020/12/01 03:31:20;;;;;;;35.70;20.07;;;;;;;-2.47;82.11;98197.69;1849471;77;20916;-79
2020/12/01 03:33:47;;;;;;;38.13;18.90;;;;;;;-2.52;82.05;98195.21;1849616;77;20991;-79
2020/12/01 03:36:17;;;;;;;38.47;20.60;;;;;;;-2.54;81.95;98193.13;1849666;77;20963;-79
2020/12/01 03:38:44;;;;;;;40.40;20.13;;;;;;;-2.62;81.89;98195.80;1849723;77;20936;-79
2020/12/01 03:41:12;;;;;;;37.27;20.47;;;;;;;-2.70;81.89;98200.19;1849680;77;21250;-78
2020/12/01 03:43:40;;;;;;;37.03;20.83;;;;;;;-2.78;81.97;98197.36;1849621;77;20927;-78
2020/12/01 03:46:08;;;;;;;35.20;20.57;;;;;;;-2.88;82.09;98200.49;1849653;77;20955;-78
2020/12/01 03:48:35;;;;;;;37.40;21.03;;;;;;;-2.94;82.49;98198.03;1849768;77;20978;-78
2020/12/01 03:51:02;;;;;;;36.00;20.17;;;;;;;-2.92;82.80;98197.56;1849677;77;20947;-78
2020/12/01 03:53:29;;;;;;;41.67;21.17;;;;;;;-2.91;82.69;98196.70;1849647;77;21958;-79
2020/12/01 03:55:56;;;;;;;42.17;22.37;;;;;;;-2.86;82.77;98202.14;1849665;77;20920;-79
2020/12/01 03:58:24;;;;;;;42.07;23.07;;;;;;;-2.83;82.48;98196.14;1853215;77;21350;-79
2020/12/01 04:00:52;;;;;;;45.57;22.33;;;;;;;-2.83;82.78;98192.33;1853179;77;21363;-80
2020/12/01 04:03:21;;;;;;;43.33;23.80;;;;;;;-2.80;82.83;98192.73;1853251;77;21125;-79
2020/12/01 04:05:48;;;;;;;39.93;23.30;;;;;;;-2.79;82.97;98199.06;1853257;77;21706;-80
2020/12/01 04:08:15;;;;;;;44.07;24.23;;;;;;;-2.74;83.00;98208.72;1853138;77;20920;-78
2020/12/01 04:10:43;;;;;;;45.73;25.03;;;;;;;-2.75;82.79;98201.95;1853301;77;21381;-78
2020/12/01 04:13:10;;;;;;;46.87;25.23;;;;;;;-2.76;82.93;98205.37;1853158;77;20912;-79
2020/12/01 04:15:39;;;;;;;47.33;26.63;;;;;;;-2.72;83.02;98209.56;1853329;77;20907;-79
2020/12/01 04:18:06;;;;;;;50.23;24.37;;;;;;;-2.70;83.03;98206.55;1853221;77;21970;-79
2020/12/01 04:20:33;;;;;;;52.10;27.03;;;;;;;-2.65;83.12;98202.64;1853263;77;20932;-79
2020/12/01 04:23:02;;;;;;;48.33;26.73;;;;;;;-2.58;83.10;98210.15;1853235;77;20987;-79
2020/12/01 04:25:29;;;;;;;48.50;24.63;;;;;;;-2.52;83.03;98202.84;1853201;77;20908;-79
2020/12/01 04:27:57;;;;;;;47.13;24.57;;;;;;;-2.47;82.72;98202.34;1853296;77;21054;-79
2020/12/01 04:30:25;;;;;;;45.60;24.33;;;;;;;-2.43;82.68;98204.40;1853157;77;20932;-78
2020/12/01 04:32:52;;;;;;;40.47;22.50;;;;;;;-2.40;82.33;98209.42;1853151;77;20977;-78
2020/12/01 04:35:24;;;;;;;37.30;21.73;;;;;;;-2.39;82.17;98208.16;1853142;77;20900;-78
2020/12/01 04:37:54;;;;;;;40.45;20.72;;;;;;;-2.40;82.01;98205.60;1853348;77;21113;-79
2020/12/01 04:40:23;;;;;;;37.17;19.87;;;;;;;-2.41;82.01;98205.20;1853299;77;20999;-79
2020/12/01 04:42:53;;;;;;;40.93;21.63;;;;;;;-2.43;81.87;98206.51;1853117;77;21389;-79
2020/12/01 04:45:21;;;;;;;41.07;22.47;;;;;;;-2.47;81.74;98204.06;1853123;77;21126;-79
2020/12/01 04:48:10;;;;;;;41.33;23.30;;;;;;;-2.51;81.87;98198.16;1824636;77;20919;-79
2020/12/01 04:50:41;;;;;;;40.07;21.77;;;;;;;-2.53;81.97;98206.70;1853127;77;20920;-79
2020/12/01 04:53:35;;;;;;;43.67;22.37;;;;;;;-2.52;82.09;98209.22;1825972;77;21046;-79
2020/12/01 04:56:14;;;;;;;45.90;23.60;;;;;;;-2.52;82.14;98207.11;1812211;77;21213;-79
2020/12/01 04:59:17;;;;;;;38.63;22.13;;;;;;;-2.50;82.18;98202.38;1852962;77;21444;-79
2020/12/01 05:02:10;;;;;;;40.05;21.75;;;;;;;-2.48;82.19;98201.08;1853341;77;21342;-80
2020/12/01 05:04:55;;;;;;;45.70;22.48;;;;;;;-2.48;82.23;98193.44;1853370;77;20907;-79
2020/12/01 05:07:48;;;;;;;40.47;21.53;;;;;;;-2.46;82.25;98198.93;1853247;77;20994;-79
2020/12/01 05:10:13;;;;;;;42.50;22.73;;;;;;;-2.42;82.15;98199.70;1852359;77;21132;-78
2020/12/01 05:12:57;;;;;;;39.97;22.43;;;;;;;-2.41;82.10;98198.40;1853038;77;21480;-79
2020/12/01 05:15:33;;;;;;;39.43;21.47;;;;;;;-2.38;82.02;98200.07;1852626;77;20975;-78
2020/12/01 05:18:20;;;;;;;45.10;21.47;;;;;;;-2.37;81.96;98198.77;1824875;77;20911;-78
2020/12/01 05:21:00;;;;;;;42.33;21.40;;;;;;;-2.34;81.82;98196.16;1853192;77;20915;-78
2020/12/01 05:23:44;;;;;;;42.07;21.67;;;;;;;-2.33;81.63;98196.98;1853254;77;21225;-79
2020/12/01 05:26:15;;;;;;;44.57;22.83;;;;;;;-2.37;81.50;98197.92;1853071;77;20971;-79
2020/12/01 05:28:53;;;;;;;38.83;20.50;;;;;;;-2.38;81.77;98200.07;1852965;77;21014;-79
2020/12/01 05:31:27;;;;;;;39.20;19.92;;;;;;;-2.37;81.92;98193.67;1849704;77;21052;-78
2020/12/01 05:34:02;;;;;;;36.87;18.73;;;;;;;-2.38;81.89;98197.52;1842307;77;21404;-80
2020/12/01 05:36:32;;;;;;;37.93;19.10;;;;;;;-2.38;81.72;98198.80;1852670;77;21520;-79
2020/12/01 05:39:05;;;;;;;38.20;21.00;;;;;;;-2.41;81.51;98206.47;1852048;77;21121;-79
2020/12/01 05:41:34;;;;;;;;;;;;;;;-2.42;81.54;98204.80;1855853;77;21361;-79
2020/12/01 05:44:05;;;;;;;38.07;18.90;;;;;;;-2.42;81.28;98204.36;1853241;77;20178;-79
2020/12/01 05:46:47;;;;;;;34.83;17.40;;;;;;;-2.43;81.21;98206.94;1853282;77;21475;-79
2020/12/01 05:49:50;;;;;;;39.00;18.90;;;;;;;-2.49;80.92;98206.61;1853063;77;21002;-79
2020/12/01 05:52:29;;;;;;;36.77;19.82;;;;;;;-2.55;80.96;98209.28;1853372;77;20915;-83
2020/12/01 05:55:23;;;;;;;33.23;18.00;;;;;;;-2.61;81.21;98220.41;1853330;77;20923;-83
2020/12/01 05:58:12;;;;;;;31.23;16.53;;;;;;;-2.64;81.03;98219.63;1851311;77;21141;-80
2020/12/01 06:00:42;;;;;;;32.27;16.47;;;;;;;-2.73;80.96;98221.02;1853450;77;21087;-80
2020/12/01 06:03:34;;;;;;;34.33;18.37;;;;;;;-2.74;81.29;98220.18;1846099;76;21018;-84
2020/12/01 06:06:04;;;;;;;34.30;18.20;;;;;;;-2.75;81.06;98215.12;1853102;77;21002;-82
2020/12/01 06:08:59;;;;;;;28.77;16.27;;;;;;;-2.77;80.93;98223.22;1853191;77;21157;-76
2020/12/01 06:11:38;;;;;;;28.50;14.87;;;;;;;-2.72;80.58;98224.00;1887749;76;22605;-85
2020/12/01 06:14:33;;;;;;;;;;;;;;;-2.78;80.29;98221.11;1861076;76;21004;-81
2020/12/01 06:18:02;;;;;;;31.00;14.50;;;;;;;-2.80;80.09;98227.09;1798594;78;22315;-78
2020/12/01 06:23:45;;;;;;;33.30;16.60;;;;;;;-2.95;79.57;98239.63;1811409;77;22856;-82
2020/12/01 06:26:45;;;;;;;33.10;17.40;;;;;;;-3.15;79.52;98240.73;1791584;80;21029;-82
2020/12/01 06:30:01;;;;;;;28.87;14.40;;;;;;;-3.29;80.12;98241.81;1788478;80;21358;-83
2020/12/01 06:32:59;;;;;;;32.00;16.07;;;;;;;-3.32;80.58;98237.58;1788558;80;20925;-83
2020/12/01 06:36:18;;;;;;;31.33;17.57;;;;;;;-3.29;80.94;98237.56;1804648;78;20966;-83
2020/12/01 06:39:19;;;;;;;40.80;20.60;;;;;;;-3.23;81.03;98242.97;1820350;78;20998;-82
2020/12/01 06:41:53;;;;;;;32.42;17.85;;;;;;;-3.19;80.80;98244.20;1809618;77;20974;-82
2020/12/01 06:44:24;;;;;;;34.13;18.40;;;;;;;-3.16;81.08;98240.33;1788024;79;21052;-79
2020/12/01 06:46:55;;;;;;;34.67;17.97;;;;;;;-3.09;81.07;98237.70;1790751;80;21064;-79
2020/12/01 06:49:28;;;;;;;37.60;19.00;;;;;;;-3.06;80.93;98238.92;1821473;78;20989;-82
2020/12/01 06:51:59;;;;;;;25.80;13.33;;;;;;;-3.00;81.11;98237.56;1756569;77;26070;-83
2020/12/01 06:54:26;;;;;;;25.37;12.57;;;;;;;-2.95;80.61;98237.08;1764574;80;21179;-80
2020/12/01 06:57:04;;;;;;;22.70;12.30;;;;;;;-2.93;79.98;98241.70;1764122;79;21352;-82
2020/12/01 06:59:32;;;;;;;21.67;11.63;;;;;;;-3.00;79.37;98236.30;1750105;80;21112;-82
2020/12/01 07:02:25;;;;;;;25.07;13.13;;;;;;;-3.01;79.44;98238.00;1743873;80;21218;-83
2020/12/01 07:05:13;;;;;;;30.32;13.20;;;;;;;-3.02;79.31;98235.05;1758280;80;21170;-82
2020/12/01 07:07:44;;;;;;;24.83;12.70;;;;;;;-3.00;79.37;98237.12;1752637;81;21120;-81
2020/12/01 07:10:32;;;;;;;;;;;;;;;-2.99;79.24;98240.08;1739686;81;21654;-83
2020/12/01 07:13:20;;;;;;;21.40;11.40;;;;;;;-2.93;79.67;98245.09;1757275;80;20540;-81
2020/12/01 07:15:49;;;;;;;25.87;12.10;;;;;;;-2.90;79.14;98250.13;1766877;80;21509;-83
2020/12/01 07:18:26;;;;;;;24.13;12.53;;;;;;;-2.92;79.17;98252.30;1734895;81;21016;-82
2020/12/01 07:21:31;;;;;;;27.10;12.67;;;;;;;-2.91;79.34;98255.24;1713901;81;21198;-83
2020/12/01 07:24:10;;;;;;;25.17;13.63;;;;;;;-2.88;79.06;98253.95;1716675;81;21169;-82
2020/12/01 07:27:05;;;;;;;25.00;11.80;;;;;;;-2.90;78.89;98246.73;1657662;82;55442;-84
2020/12/01 07:30:07;;;;;;;23.77;12.83;;;;;;;-2.89;78.79;98252.27;1600501;86;21143;-81
2020/12/01 07:32:58;;;;;;;27.03;13.70;;;;;;;-2.94;78.67;98251.48;1668808;84;21109;-85
2020/12/01 07:35:51;;;;;;;26.95;12.73;;;;;;;-2.90;78.89;98248.02;1686473;85;21076;-83
2020/12/01 07:38:35;;;;;;;28.47;13.27;;;;;;;-2.89;78.83;98249.72;1681508;85;22221;-82
2020/12/01 07:41:27;;;;;;;26.17;13.07;;;;;;;-2.90;78.82;98244.19;1686917;84;21161;-79
2020/12/01 07:44:05;;;;;;;28.70;15.17;;;;;;;-2.90;79.09;98246.73;1689294;84;21172;-85
2020/12/01 07:49:23;;;;;;;26.97;14.90;;;;;;;-2.68;79.35;98248.10;1676037;84;21175;-82
2020/12/01 07:52:07;;;;;;;27.73;15.47;;;;;;;-2.56;79.30;98247.92;1686173;84;21235;-80
2020/12/01 07:54:37;;;;;;;24.03;12.87;;;;;;;-2.46;79.47;98243.51;1679050;84;21198;-83
2020/12/01 07:57:22;;;;;;;26.53;12.03;;;;;;;-2.36;79.24;98251.83;1687271;84;21755;-79
2020/12/01 07:59:50;;;;;;;30.10;15.50;;;;;;;-2.38;78.16;98254.41;1683090;84;21230;-78
2020/12/01 08:02:22;;;;;;;28.47;15.20;;;;;;;-2.46;78.22;98254.13;1666698;84;21093;-78
2020/12/01 08:05:06;;;;;;;29.17;15.43;;;;;;;-2.44;78.66;98255.78;1661262;84;21390;-81
2020/12/01 08:07:35;;;;;;;26.37;14.60;;;;;;;-2.35;78.59;98254.34;1675728;84;21083;-82
2020/12/01 08:10:12;;;;;;;27.43;16.00;;;;;;;-2.29;78.60;98252.97;1677413;84;21225;-79
2020/12/01 08:12:43;;;;;;;28.53;15.57;;;;;;;-2.18;78.97;98251.94;1680296;84;20917;-86
2020/12/01 08:15:15;;;;;;;28.27;15.63;;;;;;;-2.06;78.81;98250.03;1681426;84;21000;-82
2020/12/01 08:17:42;;;;;;;31.37;17.85;;;;;;;-2.00;78.09;98249.05;1670580;84;21382;-81
2020/12/01 08:20:13;;;;;;;27.27;14.77;;;;;;;-2.04;77.81;98250.83;1683199;84;21020;-84
2020/12/01 08:22:41;;;;;;;27.03;15.07;;;;;;;-2.11;77.61;98245.44;1673320;84;21174;-81
2020/12/01 08:25:14;;;;;;;22.95;12.07;;;;;;;-2.21;78.02;98257.10;1701907;83;21010;-83
2020/12/01 08:28:06;;;;;;;24.03;12.93;;;;;;;-2.27;77.88;98255.05;1710108;83;21132;-81
2020/12/01 08:30:58;;;;;;;47.90;27.37;;;;;;;-2.37;77.25;98259.07;1706358;83;21383;-79
2020/12/01 08:34:13;;;;;;;23.87;12.73;;;;;;;-2.50;77.43;98252.05;1715632;83;21130;-82
2020/12/01 08:37:05;;;;;;;22.90;12.27;;;;;;;-2.55;77.56;98257.23;1644373;86;21169;-80
2020/12/01 08:40:07;;;;;;;22.70;12.67;;;;;;;-2.62;78.06;98259.91;1712130;83;21739;-77
2020/12/01 08:43:17;;;;;;;33.80;18.67;;;;;;;-2.64;77.90;98257.39;1701195;84;21116;-80
2020/12/01 08:46:20;;;;;;;22.13;12.43;;;;;;;-2.70;77.84;98258.75;1704881;83;22057;-80
2020/12/01 08:49:06;;;;;;;23.03;11.13;;;;;;;-2.79;78.14;98252.53;1681308;84;21510;-79
2020/12/01 08:51:54;;;;;;;23.07;12.50;;;;;;;-2.76;78.61;98259.27;1692650;83;21216;-83
2020/12/01 08:54:26;;;;;;;28.27;12.40;;;;;;;-2.79;78.51;98250.42;1659959;84;21138;-81
2020/12/01 08:57:15;;;;;;;22.60;12.47;;;;;;;-2.82;78.72;98253.83;1715063;82;20979;-82
2020/12/01 08:59:55;;;;;;;22.70;12.30;;;;;;;-2.84;78.81;98253.02;1711369;82;21193;-76
2020/12/01 09:02:23;;;;;;;20.20;10.47;;;;;;;-2.85;79.06;98247.09;1700630;83;21159;-78
2020/12/01 09:05:01;;;;;;;20.23;11.07;;;;;;;-2.79;78.36;98244.05;1716291;83;21486;-78
2020/12/01 09:07:34;;;;;;;20.90;11.77;;;;;;;-2.78;79.03;98245.30;1676865;84;21121;-77
2020/12/01 09:10:21;;;;;;;21.23;10.90;;;;;;;-2.73;78.42;98257.53;1703889;82;21170;-78
2020/12/01 09:19:18;;;;;;;21.90;12.40;;;;;;;-2.85;78.01;98244.55;1768523;79;21162;-77
2020/12/01 09:23:42;;;;;;;25.10;12.30;;;;;;;-2.88;77.53;98241.22;1786302;78;21075;-78
2020/12/01 09:26:18;;;;;;;25.27;14.10;;;;;;;-2.88;78.08;98238.67;1769929;81;21068;-77
2020/12/01 09:28:57;;;;;;;29.70;15.00;;;;;;;-2.85;78.16;98236.91;1779910;79;20996;-73
2020/12/01 09:31:26;;;;;;;24.70;13.37;;;;;;;-2.78;77.97;98230.02;1831566;76;21022;-76
2020/12/01 09:33:55;;;;;;;19.97;10.70;;;;;;;-2.70;77.95;98233.28;1819793;77;22060;-75
2020/12/01 09:36:23;;;;;;;23.27;13.47;;;;;;;-2.69;76.36;98224.78;1841141;77;21046;-73
2020/12/01 09:38:51;;;;;;;22.10;11.63;;;;;;;-2.81;76.39;98226.27;1829615;76;21002;-76
2020/12/01 09:41:20;;;;;;;29.47;16.83;;;;;;;-2.88;76.30;98228.05;1820161;77;21129;-76
2020/12/01 09:44:59;;;;;;;24.33;13.53;;;;;;;-3.01;76.30;98224.44;1822485;77;21049;-78
2020/12/01 09:46:36;;;;;;;23.80;12.53;;;;;;;-3.06;76.77;98212.20;1812874;77;21201;-74
2020/12/01 09:49:02;;;;;;;27.40;12.87;;;;;;;-3.10;77.19;98215.23;1838497;77;21426;-74
2020/12/01 09:51:26;;;;;;;36.90;19.70;;;;;;;-3.07;77.15;98219.00;1828389;77;21118;-71
2020/12/01 09:56:48;;;;;;;30.70;15.97;;;;;;;-2.97;77.66;98204.02;1827102;77;21133;-75
2020/12/01 10:02:57;;;;;;;27.50;13.07;;;;;;;-2.62;78.02;98205.16;1719689;81;21523;-75
2020/12/01 10:07:42;;;;;;;26.60;14.07;;;;;;;-2.38;76.92;98191.16;1717460;83;21179;-77
2020/12/01 10:12:45;;;;;;;32.85;17.92;;;;;;;-2.31;76.82;98191.02;1707804;83;21393;-76
2020/12/01 10:15:40;;;;;;;27.13;15.53;;;;;;;-2.24;76.88;98189.17;1729297;82;21186;-74
2020/12/01 10:24:38;;;;;;;41.43;25.07;;;;;;;-2.05;76.15;98190.53;1730650;83;21074;-75
2020/12/01 10:36:28;;;;;;;34.33;19.80;;;;;;;-1.93;74.84;98175.85;1727369;83;21009;-75
2020/12/01 10:38:59;;;;;;;26.43;14.97;;;;;;;-1.89;75.24;98176.21;1729996;83;21415;-76
2020/12/01 10:41:29;;;;;;;31.77;19.70;;;;;;;-1.75;75.76;98171.65;1729431;83;21179;-75
2020/12/01 10:43:56;;;;;;;26.07;14.77;;;;;;;-1.62;74.54;98179.46;1729222;83;21596;-77
2020/12/01 10:46:23;;;;;;;40.00;23.13;;;;;;;-1.72;73.24;98180.53;1729912;83;21033;-76
2020/12/01 10:48:51;;;;;;;24.77;12.18;;;;;;;-1.95;73.47;98174.62;1729910;83;21119;-76
2020/12/01 10:51:18;;;;;;;20.60;9.68;;;;;;;-2.08;74.45;98166.36;1729684;83;21788;-76
2020/12/01 10:53:45;;;;;;;23.52;13.08;;;;;;;-2.15;74.44;98173.74;1729773;83;21447;-75
2020/12/01 10:56:16;;;;;;;37.50;26.93;;;;;;;-2.26;75.04;98171.37;1729557;83;21210;-80
2020/12/01 10:58:43;;;;;;;37.07;21.23;;;;;;;-2.31;75.39;98167.25;1729828;83;20969;-76
2020/12/01 11:01:10;;;;;;;30.47;16.80;;;;;;;-2.34;75.48;98166.85;1723506;83;21187;-79
2020/12/01 11:03:38;;;;;;;23.07;12.37;;;;;;;-2.31;75.71;98162.16;1718428;83;21590;-76
2020/12/01 11:06:05;;;;;;;26.73;14.45;;;;;;;-2.30;75.84;98170.20;1699360;83;21424;-76
2020/12/01 11:08:32;;;;;;;23.63;12.47;;;;;;;-2.35;75.91;98166.45;1690427;85;21068;-81
2020/12/01 11:11:01;;;;;;;30.30;17.03;;;;;;;-2.41;76.18;98163.17;1701104;83;21148;-84
2020/12/01 11:13:31;;;;;;;33.13;19.97;;;;;;;-2.50;76.33;98159.08;1697292;83;21057;-84
2020/12/01 11:15:58;;;;;;;27.25;16.23;;;;;;;-2.58;76.78;98161.77;1691175;85;21376;-79
2020/12/01 11:18:26;;;;;;;41.87;25.33;;;;;;;-2.61;77.11;98154.19;1715667;83;21139;-80
2020/12/01 11:20:53;;;;;;;29.20;17.70;;;;;;;-2.59;77.17;98161.36;1712234;82;21053;-80
2020/12/01 11:23:20;;;;;;;26.20;14.93;;;;;;;-2.58;77.36;98155.40;1763868;81;21048;-81
2020/12/01 11:25:48;;;;;;;20.50;11.60;;;;;;;-2.55;76.93;98155.36;1765193;81;21000;-83
2020/12/01 11:28:17;;;;;;;26.10;14.90;;;;;;;-2.53;76.19;98160.86;1729398;81;21410;-82
2020/12/01 11:30:44;;;;;;;25.77;14.47;;;;;;;-2.57;76.28;98156.23;1715792;81;21509;-78
2020/12/01 11:33:12;;;;;;;25.93;14.60;;;;;;;-2.56;76.52;98160.05;1689177;82;21410;-80
2020/12/01 11:35:39;;;;;;;28.23;16.43;;;;;;;-2.57;76.02;98151.98;1734837;81;21217;-79
2020/12/01 11:38:06;;;;;;;32.83;17.67;;;;;;;-2.58;76.22;98158.38;1729546;82;21055;-80
2020/12/01 11:40:33;;;;;;;41.13;24.10;;;;;;;-2.57;76.38;98156.23;1704571;83;21211;-82
2020/12/01 11:43:03;;;;;;;41.95;26.37;;;;;;;-2.51;76.79;98160.39;1689468;85;21096;-82
2020/12/01 11:45:30;;;;;;;29.13;17.30;;;;;;;-2.49;75.92;98158.21;1694897;83;20978;-82
2020/12/01 11:47:57;;;;;;;24.00;13.30;;;;;;;-2.51;75.83;98156.13;1702102;83;21095;-81
2020/12/01 11:50:24;;;;;;;28.07;16.60;;;;;;;-2.58;75.74;98159.22;1697493;83;21137;-83
2020/12/01 11:52:52;;;;;;;22.03;11.90;;;;;;;-2.60;76.68;98156.30;1711909;83;21214;-82
2020/12/01 11:55:23;;;;;;;27.60;14.33;;;;;;;-2.63;76.45;98148.73;1718055;83;21127;-83
2020/12/01 11:57:51;;;;;;;44.70;25.57;;;;;;;-2.65;76.71;98151.30;1715838;83;21041;-81
2020/12/01 12:00:23;;;;;;;60.83;35.80;;;;;;;-2.63;76.80;98149.56;1728981;81;21656;-83
2020/12/01 12:02:50;;;;;;;35.20;20.33;;;;;;;-2.53;76.92;98151.95;1738201;81;21111;-81
2020/12/01 12:05:18;;;;;;;35.00;21.17;;;;;;;-2.48;76.70;98147.59;1747214;81;21249;-82
2020/12/01 12:07:46;;;;;;;31.13;17.23;;;;;;;-2.53;76.50;98145.58;1733652;81;21162;-85
2020/12/01 12:10:15;;;;;;;25.17;13.97;;;;;;;-2.53;76.96;98141.33;1737049;81;21066;-83
2020/12/01 12:12:48;;;;;;;24.53;14.43;;;;;;;-2.48;77.47;98141.22;1723509;81;21451;-84
2020/12/01 12:15:20;;;;;;;35.03;22.17;;;;;;;-2.45;76.36;98143.73;1750017;81;21144;-81
2020/12/01 12:18:02;;;;;;;39.47;26.30;;;;;;;-2.46;76.41;98145.88;1794455;77;22863;-80
2020/12/01 12:23:09;;;;;;;34.53;18.57;;;;;;;-2.63;75.75;98141.09;1827876;77;22756;-82
2020/12/01 12:25:37;;;;;;;32.07;20.07;;;;;;;-2.74;75.95;98150.16;1787511;80;21036;-81
2020/12/01 12:28:08;;;;;;;24.03;12.60;;;;;;;-2.78;76.30;98144.73;1791517;79;21009;-79
2020/12/01 12:30:39;;;;;;;29.93;16.63;;;;;;;-2.78;76.93;98142.63;1784007;79;21056;-80
2020/12/01 12:33:06;;;;;;;37.70;25.33;;;;;;;-2.76;76.96;98143.42;1787252;80;21104;-82
2020/12/01 12:35:35;;;;;;;34.40;20.97;;;;;;;-2.70;77.17;98136.53;1789378;79;21455;-81